Brejo Santo, Brazil
Current Conditions -  °F | °C
As of 10:00 PM on Wednesday 22 Oct 2014 (Local Time) from SBJU Reporting Station
Few Clouds Few Clouds  
Wind Chill: 90°   Ceiling: Unl
Heat Index: 91°   Visibility: 6mi
Dew Point: 64°   Wind: 5mph
Humidity: 43%   Direction: 180°S
Pressure: 30.03"   Gusts: NA
Location:  7.49°S, 38.99°W
Report Text: SBJU 230100Z 18004KT 9999 FEW022 32/18 Q1017
Loading
Personal Weather Stations






























Interactive Weather Map
Tropical Storm Tracking
New forecast layout! Learn more

10-Day Weather Forecast

Advertisements
Track Severe Weather on mobile